Time;durP1;ratioP1;P1;durP2;ratioP2;P2;SDS_P1;SDS_P2;PMS_P1;PMS_P2;Temp;Humidity;BMP_temperature;BMP_pressure;BME280_temperature;BME280_humidity;BME280_pressure;Samples;Min_cycle;Max_cycle;Signal;HPM_P1;HPM_P2
2022/07/02 00:00:57;;;;;;;8.43;6.20;;;17.20;73.10;;;;;;2374908;56;21054;-74
2022/07/02 00:03:29;;;;;;;9.00;6.90;;;17.10;73.00;;;;;;2374370;56;21589;-74
2022/07/02 00:05:58;;;;;;;7.65;6.47;;;17.10;73.20;;;;;;2372669;56;21570;-74
2022/07/02 00:08:27;;;;;;;10.48;5.72;;;17.10;73.30;;;;;;2374326;56;21582;-74
2022/07/02 00:10:56;;;;;;;5.62;5.03;;;17.10;73.30;;;;;;2374101;56;21121;-74
2022/07/02 00:13:25;;;;;;;6.78;4.78;;;17.00;73.40;;;;;;2374412;56;21517;-73
2022/07/02 00:15:53;;;;;;;5.80;5.00;;;16.90;73.60;;;;;;2373889;56;21538;-74
2022/07/02 00:18:21;;;;;;;5.50;4.95;;;16.90;73.70;;;;;;2373902;56;21605;-74
2022/07/02 00:20:49;;;;;;;8.52;5.57;;;16.90;73.80;;;;;;2373644;56;21099;-74
2022/07/02 00:23:17;;;;;;;11.15;5.80;;;16.90;73.60;;;;;;2374282;56;21593;-74
2022/07/02 00:25:48;;;;;;;9.40;5.43;;;16.90;73.70;;;;;;2373742;56;21588;-74
2022/07/02 00:28:19;;;;;;;8.13;6.07;;;16.80;73.40;;;;;;2374165;56;21050;-74
2022/07/02 00:30:48;;;;;;;9.43;5.72;;;16.80;73.50;;;;;;2627308;52;21062;-74
2022/07/02 00:33:16;;;;;;;7.80;4.60;;;16.80;73.20;;;;;;2373217;56;21047;-74
2022/07/02 00:35:45;;;;;;;12.77;6.25;;;16.80;73.70;;;;;;2373513;56;21632;-74
2022/07/02 00:38:12;;;;;;;9.02;5.95;;;16.70;73.50;;;;;;2373633;56;21039;-74
2022/07/02 00:40:41;;;;;;;8.13;5.00;;;16.70;73.30;;;;;;2373820;56;21031;-74
2022/07/02 00:43:09;;;;;;;6.03;5.43;;;16.70;73.60;;;;;;2374243;56;21098;-74
2022/07/02 00:45:37;;;;;;;9.60;5.90;;;16.70;73.50;;;;;;2627120;52;21050;-74
2022/07/02 00:48:06;;;;;;;7.50;6.22;;;16.70;73.60;;;;;;2374164;56;21106;-74
2022/07/02 00:50:34;;;;;;;10.60;6.15;;;16.70;73.70;;;;;;2373811;56;21046;-74
2022/07/02 00:53:01;;;;;;;7.60;5.35;;;16.70;73.70;;;;;;2374008;56;21672;-74
2022/07/02 00:55:29;;;;;;;6.78;5.90;;;16.60;74.00;;;;;;2373388;56;21150;-74
2022/07/02 00:57:58;;;;;;;5.93;5.30;;;16.60;74.20;;;;;;2374095;56;21039;-74
2022/07/02 01:00:26;;;;;;;9.13;6.43;;;16.60;74.30;;;;;;2374155;56;21114;-74
2022/07/02 01:02:56;;;;;;;6.00;5.28;;;16.60;74.80;;;;;;2373950;56;21044;-74
2022/07/02 01:05:24;;;;;;;7.80;6.37;;;16.50;74.10;;;;;;2374085;56;21058;-74
2022/07/02 01:10:44;;;;;;;9.55;6.00;;;16.50;73.90;;;;;;2627165;52;21554;-74
2022/07/02 01:13:12;;;;;;;10.32;6.50;;;16.50;73.60;;;;;;2373909;56;21111;-73
2022/07/02 01:15:41;;;;;;;9.02;6.47;;;16.50;73.60;;;;;;2373414;56;21035;-73
2022/07/02 01:18:10;;;;;;;12.25;7.30;;;16.50;73.80;;;;;;2374427;56;21593;-74
2022/07/02 01:20:38;;;;;;;10.73;6.90;;;16.50;73.80;;;;;;2374482;56;21106;-74
2022/07/02 01:23:06;;;;;;;15.15;7.40;;;16.50;73.90;;;;;;2374384;56;21039;-74
2022/07/02 01:25:34;;;;;;;8.20;6.87;;;16.40;74.00;;;;;;2372884;56;21594;-74
2022/07/02 01:28:01;;;;;;;7.43;6.37;;;16.40;74.00;;;;;;2373446;56;21111;-74
2022/07/02 01:30:29;;;;;;;10.90;7.70;;;16.40;74.00;;;;;;2373116;56;21542;-73
2022/07/02 01:32:56;;;;;;;7.97;6.78;;;16.40;74.00;;;;;;2373272;56;21585;-74
2022/07/02 01:35:24;;;;;;;15.10;7.87;;;16.40;74.00;;;;;;2373316;56;21035;-74
2022/07/02 01:37:52;;;;;;;8.45;6.10;;;16.40;73.90;;;;;;2374083;56;21301;-74
2022/07/02 01:40:20;;;;;;;9.27;7.55;;;16.40;74.20;;;;;;2627276;52;21051;-73
2022/07/02 01:42:47;;;;;;;14.18;7.90;;;16.40;74.10;;;;;;2374246;56;21110;-74
2022/07/02 01:45:15;;;;;;;11.73;7.37;;;16.30;74.20;;;;;;2372950;56;21142;-74
2022/07/02 01:47:42;;;;;;;10.20;7.28;;;16.30;74.50;;;;;;2626933;52;21071;-74
2022/07/02 01:50:10;;;;;;;9.40;7.45;;;16.30;74.60;;;;;;2374100;56;21047;-74
2022/07/02 01:52:38;;;;;;;9.15;7.40;;;16.30;75.50;;;;;;2373469;56;21143;-74
2022/07/02 01:55:07;;;;;;;13.52;9.10;;;16.30;74.70;;;;;;2374082;56;21051;-74
2022/07/02 01:57:35;;;;;;;13.32;9.30;;;16.30;74.50;;;;;;2373864;56;21091;-74
2022/07/02 02:00:05;;;;;;;12.00;9.73;;;16.30;74.50;;;;;;2374092;56;21213;-74
2022/07/02 02:02:32;;;;;;;11.52;9.40;;;16.30;74.30;;;;;;2373229;56;21051;-74
2022/07/02 02:05:00;;;;;;;17.52;11.27;;;16.30;74.20;;;;;;2627320;52;21031;-74
2022/07/02 02:07:27;;;;;;;14.02;9.95;;;16.30;74.50;;;;;;2373759;56;21035;-74
2022/07/02 02:09:55;;;;;;;14.20;10.02;;;16.30;74.40;;;;;;2374198;56;22243;-74
2022/07/02 02:12:23;;;;;;;13.13;9.90;;;16.30;74.50;;;;;;2373927;56;21114;-74
2022/07/02 02:14:50;;;;;;;11.80;9.20;;;16.30;74.50;;;;;;2627620;52;21055;-74
2022/07/02 02:17:17;;;;;;;10.38;9.02;;;16.30;74.70;;;;;;2371867;56;21103;-74
2022/07/02 02:19:45;;;;;;;13.20;9.95;;;16.30;74.70;;;;;;2373603;56;21525;-74
2022/07/02 02:22:12;;;;;;;11.95;8.75;;;16.30;74.70;;;;;;2374111;56;21114;-74
2022/07/02 02:24:40;;;;;;;10.85;8.57;;;16.30;74.90;;;;;;2627180;52;21114;-74
2022/07/02 02:27:08;;;;;;;12.35;9.02;;;16.30;74.90;;;;;;2373892;56;21039;-74
2022/07/02 02:29:35;;;;;;;13.62;9.65;;;16.30;74.70;;;;;;2374485;56;21098;-74
2022/07/02 02:32:04;;;;;;;13.38;9.50;;;16.30;74.60;;;;;;2373741;56;21622;-74
2022/07/02 02:34:32;;;;;;;14.38;9.68;;;16.30;74.70;;;;;;2373884;56;21043;-73
2022/07/02 02:36:59;;;;;;;12.32;9.32;;;16.30;74.60;;;;;;2373771;56;21054;-74
2022/07/02 02:39:27;;;;;;;17.75;9.98;;;16.30;74.60;;;;;;2374136;56;21562;-74
2022/07/02 02:41:54;;;;;;;15.13;9.80;;;16.30;74.70;;;;;;2372873;56;21047;-74
2022/07/02 02:44:22;;;;;;;12.35;9.40;;;16.20;74.50;;;;;;2372694;56;21046;-74
2022/07/02 02:46:49;;;;;;;13.62;9.75;;;16.20;74.40;;;;;;2372392;56;21055;-74
2022/07/02 02:49:17;;;;;;;19.62;9.40;;;16.20;74.50;;;;;;2373553;56;21055;-74
2022/07/02 02:51:45;;;;;;;14.00;9.27;;;16.20;74.80;;;;;;2373762;56;21114;-74
2022/07/02 02:54:12;;;;;;;12.15;9.65;;;16.20;74.70;;;;;;2373283;56;21062;-74
2022/07/02 02:56:40;;;;;;;12.48;8.48;;;16.20;74.70;;;;;;2373328;56;21585;-74
2022/07/02 02:59:07;;;;;;;9.90;8.20;;;16.20;74.70;;;;;;2372994;56;21078;-74
2022/07/02 03:01:35;;;;;;;13.73;9.50;;;16.20;74.70;;;;;;2373420;56;21043;-74
2022/07/02 03:04:02;;;;;;;13.77;9.80;;;16.20;74.60;;;;;;2373472;56;21047;-74
2022/07/02 03:06:30;;;;;;;16.42;10.20;;;16.20;74.90;;;;;;2372343;56;21039;-74
2022/07/02 03:08:57;;;;;;;12.85;9.05;;;16.20;74.90;;;;;;2373444;56;21059;-74
2022/07/02 03:11:25;;;;;;;18.17;10.68;;;16.20;74.90;;;;;;2373653;56;21534;-74
2022/07/02 03:13:52;;;;;;;14.60;10.15;;;16.20;75.00;;;;;;2373913;56;21043;-74
2022/07/02 03:16:19;;;;;;;13.52;10.32;;;16.20;75.30;;;;;;2372683;56;21117;-74
2022/07/02 03:18:47;;;;;;;12.85;9.65;;;16.20;75.30;;;;;;2626087;52;21035;-74
2022/07/02 03:21:15;;;;;;;14.38;10.40;;;16.20;75.30;;;;;;2373372;56;21125;-73
2022/07/02 03:26:17;;;;;;;15.40;11.63;;;16.20;75.20;;;;;;2335504;57;28287;-73
2022/07/02 03:28:45;;;;;;;11.40;9.10;;;15.90;78.00;;;;;;2347294;57;21118;-73
2022/07/02 03:31:12;;;;;;;16.08;9.55;;;16.10;77.20;;;;;;2345501;57;21045;-73
2022/07/02 03:33:40;;;;;;;12.90;9.15;;;16.20;76.30;;;;;;2345217;57;21034;-73
2022/07/02 03:36:08;;;;;;;14.43;8.55;;;16.30;75.80;;;;;;2345262;57;21109;-73
2022/07/02 03:38:36;;;;;;;11.10;8.25;;;16.30;75.80;;;;;;2345970;57;21618;-73
2022/07/02 03:41:03;;;;;;;12.15;7.87;;;16.30;75.90;;;;;;2345839;57;21565;-73
2022/07/02 03:43:31;;;;;;;14.77;8.52;;;16.30;76.10;;;;;;2345510;57;21120;-73
2022/07/02 03:45:58;;;;;;;12.05;8.13;;;16.30;76.00;;;;;;2345389;57;21655;-73
2022/07/02 03:48:26;;;;;;;14.68;9.55;;;16.30;75.70;;;;;;2592522;53;21540;-73
2022/07/02 03:50:53;;;;;;;11.88;9.35;;;16.30;75.40;;;;;;2346103;57;21556;-73
2022/07/02 03:53:21;;;;;;;12.73;9.02;;;16.30;75.30;;;;;;2345758;57;21029;-73
2022/07/02 03:55:48;;;;;;;14.07;8.75;;;16.30;75.30;;;;;;2345466;57;21632;-73
2022/07/02 03:58:16;;;;;;;16.80;8.55;;;16.30;75.40;;;;;;2345736;57;21069;-73
2022/07/02 04:00:43;;;;;;;13.50;9.27;;;16.30;75.50;;;;;;2345714;57;21018;-73
2022/07/02 04:03:11;;;;;;;10.77;8.30;;;16.30;75.60;;;;;;2345149;57;21164;-73
2022/07/02 04:05:38;;;;;;;12.10;8.95;;;16.40;76.10;;;;;;2345324;57;21129;-73
2022/07/02 04:08:06;;;;;;;14.27;8.68;;;16.30;76.00;;;;;;2345818;57;21049;-74
2022/07/02 04:10:33;;;;;;;15.18;9.18;;;16.40;76.00;;;;;;2592946;53;21050;-73
2022/07/02 04:13:01;;;;;;;12.35;8.30;;;16.40;75.90;;;;;;2345687;57;21038;-73
2022/07/02 04:15:29;;;;;;;12.73;8.15;;;16.40;76.10;;;;;;2381213;52;21453;-73
2022/07/02 04:17:56;;;;;;;11.63;8.13;;;16.40;76.30;;;;;;2376155;56;21555;-73
2022/07/02 04:20:24;;;;;;;12.70;8.68;;;16.40;76.40;;;;;;2375617;56;21612;-73
2022/07/02 04:22:52;;;;;;;10.55;8.13;;;16.40;76.50;;;;;;2375934;56;21561;-73
2022/07/02 04:25:19;;;;;;;11.60;8.48;;;16.40;76.40;;;;;;2373956;56;21027;-73
2022/07/02 04:27:47;;;;;;;14.77;8.15;;;16.40;76.30;;;;;;2375402;56;21091;-73
2022/07/02 04:30:14;;;;;;;11.20;7.60;;;16.40;76.30;;;;;;2375528;56;21181;-73
2022/07/02 04:32:42;;;;;;;13.77;8.63;;;16.40;76.40;;;;;;2375250;56;21050;-73
2022/07/02 04:35:10;;;;;;;12.02;8.18;;;16.40;76.70;;;;;;2373834;56;21031;-73
2022/07/02 04:37:37;;;;;;;11.65;7.00;;;16.40;76.60;;;;;;2374453;56;21046;-73
2022/07/02 04:40:08;;;;;;;11.80;7.65;;;16.50;76.90;;;;;;2374340;56;21058;-73
2022/07/02 04:42:35;;;;;;;9.88;6.80;;;16.50;76.70;;;;;;2375070;56;21094;-73
2022/07/02 04:45:03;;;;;;;12.37;8.00;;;16.50;76.50;;;;;;2374553;56;21035;-73
2022/07/02 04:47:31;;;;;;;13.57;7.85;;;16.50;76.50;;;;;;2374185;56;21109;-73
2022/07/02 04:49:58;;;;;;;11.68;7.47;;;16.50;76.30;;;;;;2374313;56;21082;-73
2022/07/02 04:52:26;;;;;;;14.57;8.18;;;16.50;76.40;;;;;;2373181;56;21038;-73
2022/07/02 04:54:53;;;;;;;11.82;7.22;;;16.50;76.70;;;;;;2374598;56;21648;-73
2022/07/02 04:57:20;;;;;;;9.40;7.20;;;16.50;76.50;;;;;;2373896;56;21206;-73
2022/07/02 04:59:48;;;;;;;9.98;6.82;;;16.60;76.80;;;;;;2374540;56;21101;-73
2022/07/02 05:02:15;;;;;;;9.38;7.03;;;16.60;77.00;;;;;;2373939;56;21134;-73
2022/07/02 05:04:43;;;;;;;16.70;9.57;;;16.60;77.00;;;;;;2373764;56;21039;-73
2022/07/02 05:07:10;;;;;;;13.07;6.57;;;16.60;76.90;;;;;;2372467;56;21655;-73
2022/07/02 05:09:38;;;;;;;8.35;6.72;;;16.60;77.00;;;;;;2372251;56;22254;-73
2022/07/02 05:12:08;;;;;;;11.65;7.70;;;16.60;77.00;;;;;;2373591;56;21031;-73
2022/07/02 05:14:36;;;;;;;10.68;8.10;;;16.60;77.10;;;;;;2373211;56;21011;-73
2022/07/02 05:17:04;;;;;;;17.80;7.70;;;16.60;76.80;;;;;;2373204;56;21023;-73
2022/07/02 05:19:32;;;;;;;14.30;7.78;;;16.70;76.90;;;;;;2374360;56;21099;-73
2022/07/02 05:21:59;;;;;;;17.17;7.47;;;16.70;76.60;;;;;;2373966;56;21509;-73
2022/07/02 05:24:27;;;;;;;12.50;7.85;;;16.70;76.40;;;;;;2374086;56;21119;-73
2022/07/02 05:26:54;;;;;;;10.20;6.75;;;16.70;76.50;;;;;;2372987;56;21118;-73
2022/07/02 05:29:22;;;;;;;12.02;7.87;;;16.70;76.50;;;;;;2374395;56;21039;-73
2022/07/02 05:31:49;;;;;;;12.37;7.43;;;16.70;76.60;;;;;;2373056;56;21030;-73
2022/07/02 05:34:16;;;;;;;9.95;6.75;;;16.80;76.70;;;;;;2373883;56;21181;-73
2022/07/02 05:36:44;;;;;;;10.07;6.32;;;16.80;76.30;;;;;;2626785;52;21102;-73
2022/07/02 05:39:11;;;;;;;11.65;7.22;;;16.80;76.40;;;;;;2373836;56;21027;-73
2022/07/02 05:41:39;;;;;;;10.20;6.90;;;16.80;76.40;;;;;;2373293;56;21094;-73
2022/07/02 05:44:06;;;;;;;14.80;7.30;;;16.80;76.30;;;;;;2374342;56;21122;-73
2022/07/02 05:46:34;;;;;;;10.35;6.72;;;16.80;76.10;;;;;;2373514;56;21084;-73
2022/07/02 05:49:02;;;;;;;13.43;7.03;;;16.90;76.50;;;;;;2373111;56;21035;-73
2022/07/02 05:51:29;;;;;;;10.38;6.53;;;16.90;76.50;;;;;;2374136;56;21604;-73
2022/07/02 05:53:56;;;;;;;9.30;6.25;;;16.90;76.30;;;;;;2374038;56;21086;-73
2022/07/02 05:56:24;;;;;;;10.52;6.65;;;17.00;76.40;;;;;;2372855;56;21557;-73
2022/07/02 05:58:51;;;;;;;9.85;6.07;;;17.00;76.10;;;;;;2374164;56;21529;-73
2022/07/02 06:01:19;;;;;;;9.77;6.20;;;17.00;76.10;;;;;;2373804;56;21094;-73
2022/07/02 06:03:46;;;;;;;9.63;5.93;;;17.00;75.70;;;;;;2373512;56;21037;-73
2022/07/02 06:09:00;;;;;;;8.25;5.50;;;17.00;75.20;;;;;;2374422;56;21066;-73
2022/07/02 06:11:29;;;;;;;8.52;5.87;;;17.10;75.00;;;;;;2626864;52;21126;-73
2022/07/02 06:13:56;;;;;;;8.48;5.57;;;17.10;74.80;;;;;;2374096;56;21059;-73
2022/07/02 06:16:24;;;;;;;10.95;5.45;;;17.10;74.90;;;;;;2627032;52;21587;-72
2022/07/02 06:18:51;;;;;;;9.32;5.95;;;17.10;75.00;;;;;;2373637;56;21046;-73
2022/07/02 06:21:19;;;;;;;10.27;5.10;;;17.20;75.20;;;;;;2372688;56;21601;-74
2022/07/02 06:23:46;;;;;;;6.97;5.50;;;17.20;75.20;;;;;;2373569;56;21030;-73
2022/07/02 06:26:14;;;;;;;7.90;5.12;;;17.20;75.30;;;;;;2371986;56;21538;-74
2022/07/02 06:31:17;;;;;;;12.20;4.78;;;17.30;74.80;;;;;;2354542;57;23845;-73
2022/07/02 06:33:45;;;;;;;7.18;4.60;;;17.30;74.70;;;;;;2347159;57;21052;-73
2022/07/02 06:36:14;;;;;;;8.48;4.57;;;17.40;74.60;;;;;;2346085;57;21057;-73
2022/07/02 06:38:42;;;;;;;6.40;4.60;;;17.40;73.70;;;;;;2347320;57;21227;-76
2022/07/02 06:43:44;;;;;;;10.07;5.65;;;17.40;73.60;;;;;;2279996;58;28005;-75
2022/07/02 06:46:12;;;;;;;8.85;5.22;;;17.40;75.70;;;;;;2318031;58;21370;-75
2022/07/02 06:48:39;;;;;;;5.25;3.65;;;17.50;74.60;;;;;;2318901;58;21534;-73
2022/07/02 06:51:07;;;;;;;8.63;4.62;;;17.60;74.00;;;;;;2316911;58;21099;-73
2022/07/02 06:53:34;;;;;;;7.90;3.97;;;17.70;73.70;;;;;;2317161;58;21123;-73
2022/07/02 06:56:02;;;;;;;7.00;3.90;;;17.70;73.30;;;;;;2316748;58;21074;-73
2022/07/02 06:58:29;;;;;;;5.55;3.67;;;17.80;72.50;;;;;;2316331;58;21118;-73
2022/07/02 07:00:57;;;;;;;7.43;3.95;;;17.80;71.90;;;;;;2316064;58;21114;-73
2022/07/02 07:03:25;;;;;;;5.55;3.60;;;17.80;71.60;;;;;;2316780;58;21589;-73
2022/07/02 07:05:52;;;;;;;7.85;3.33;;;17.90;70.00;;;;;;2316734;58;21137;-73
2022/07/02 07:08:19;;;;;;;4.95;3.08;;;17.90;70.40;;;;;;2317860;58;21608;-73
2022/07/02 07:10:47;;;;;;;8.48;3.55;;;17.90;69.70;;;;;;2316304;58;21074;-73
2022/07/02 07:13:14;;;;;;;8.23;3.15;;;18.00;70.50;;;;;;2315349;58;21064;-73
2022/07/02 07:15:42;;;;;;;10.45;3.25;;;18.00;70.50;;;;;;2316224;58;21071;-73
2022/07/02 07:18:09;;;;;;;5.78;3.17;;;18.00;70.20;;;;;;2316711;58;21521;-73
2022/07/02 07:20:37;;;;;;;4.32;2.55;;;18.10;70.10;;;;;;2317388;58;21616;-73
2022/07/02 07:23:04;;;;;;;7.53;2.70;;;18.10;69.70;;;;;;2317709;58;21118;-73
2022/07/02 07:25:32;;;;;;;4.22;1.95;;;18.10;69.30;;;;;;2315664;58;21075;-73
2022/07/02 07:28:00;;;;;;;4.12;2.00;;;18.10;68.50;;;;;;2316673;58;21059;-74
2022/07/02 07:30:27;;;;;;;7.80;2.35;;;18.20;67.80;;;;;;2316218;58;21612;-73
2022/07/02 07:32:55;;;;;;;4.55;1.85;;;18.30;67.90;;;;;;2316109;58;21043;-73
2022/07/02 07:35:22;;;;;;;3.70;1.80;;;18.30;65.60;;;;;;2313497;58;21043;-74
2022/07/02 07:37:58;;;;;;;2.67;1.58;;;18.30;65.50;;;;;;2315676;58;21537;-73
2022/07/02 07:40:27;;;;;;;2.87;1.95;;;18.40;65.50;;;;;;2555220;54;21063;-73
2022/07/02 07:42:54;;;;;;;6.20;2.20;;;18.50;64.60;;;;;;2316952;58;21059;-73
2022/07/02 07:45:22;;;;;;;2.78;1.75;;;18.50;64.60;;;;;;2316859;58;21063;-73
2022/07/02 07:47:49;;;;;;;4.03;1.55;;;18.60;64.90;;;;;;2316828;58;21047;-73
2022/07/02 07:50:16;;;;;;;5.70;1.60;;;18.60;65.50;;;;;;2317312;58;21071;-73
2022/07/02 07:52:44;;;;;;;4.50;1.75;;;18.70;65.40;;;;;;2316104;58;21154;-73
2022/07/02 07:55:12;;;;;;;6.20;2.15;;;18.80;65.60;;;;;;2315578;58;21044;-73
2022/07/02 07:57:39;;;;;;;3.05;1.65;;;18.90;64.80;;;;;;2315658;58;21106;-73
2022/07/02 08:00:09;;;;;;;4.45;1.90;;;19.00;64.10;;;;;;2315843;58;21130;-73
2022/07/02 08:02:37;;;;;;;3.08;1.73;;;19.00;64.40;;;;;;2314051;58;21075;-73
2022/07/02 08:05:06;;;;;;;4.53;1.50;;;19.10;63.00;;;;;;2313483;58;21111;-73
2022/07/02 08:07:37;;;;;;;5.93;2.58;;;19.20;63.50;;;;;;2315605;58;21043;-73
2022/07/02 08:10:07;;;;;;;6.15;1.67;;;19.20;63.10;;;;;;2315131;58;21111;-73
2022/07/02 08:12:35;;;;;;;4.78;2.05;;;19.20;63.30;;;;;;2316226;58;21051;-73
2022/07/02 08:15:03;;;;;;;5.68;1.40;;;19.30;62.60;;;;;;2317076;58;21044;-73
2022/07/02 08:17:31;;;;;;;2.58;1.52;;;19.30;62.40;;;;;;2317428;58;21043;-73
2022/07/02 08:19:58;;;;;;;4.00;1.65;;;19.40;61.70;;;;;;2314915;58;21114;-73
2022/07/02 08:22:26;;;;;;;5.78;1.85;;;19.50;60.60;;;;;;2314768;58;21360;-73
2022/07/02 08:24:53;;;;;;;4.80;1.60;;;19.50;59.40;;;;;;2315865;58;21154;-76
2022/07/02 08:27:21;;;;;;;3.00;1.37;;;19.60;59.40;;;;;;2557818;54;21040;-73
2022/07/02 08:29:49;;;;;;;2.97;1.62;;;19.60;59.20;;;;;;2317295;58;21605;-73
2022/07/02 08:32:16;;;;;;;5.32;1.55;;;19.70;58.80;;;;;;2316868;58;21439;-73
2022/07/02 08:34:44;;;;;;;2.85;1.33;;;19.70;58.80;;;;;;2316734;58;21036;-73
2022/07/02 08:37:11;;;;;;;5.50;1.30;;;19.70;58.60;;;;;;2317039;58;21067;-73
2022/07/02 08:39:39;;;;;;;5.00;1.90;;;19.70;58.30;;;;;;2316053;58;21043;-73
2022/07/02 08:42:09;;;;;;;2.15;1.33;;;19.80;58.80;;;;;;2317229;58;21170;-73
2022/07/02 08:44:38;;;;;;;5.53;1.27;;;19.80;58.40;;;;;;2316510;58;21534;-73
2022/07/02 08:47:08;;;;;;;3.03;1.33;;;19.80;58.10;;;;;;2316687;58;21075;-73
2022/07/02 08:49:39;;;;;;;3.33;1.40;;;19.90;58.20;;;;;;2317240;58;21063;-73
2022/07/02 08:52:08;;;;;;;3.03;1.17;;;19.90;57.60;;;;;;2558104;53;21048;-73
2022/07/02 08:54:36;;;;;;;2.65;1.33;;;20.00;57.30;;;;;;2317357;58;21059;-74
2022/07/02 08:57:05;;;;;;;2.25;1.20;;;20.10;56.80;;;;;;2316842;58;21035;-73
2022/07/02 08:59:33;;;;;;;6.03;1.42;;;20.20;57.10;;;;;;2317159;58;21494;-74
2022/07/02 09:02:02;;;;;;;4.43;1.35;;;20.20;56.70;;;;;;2316876;58;21283;-74
2022/07/02 09:04:31;;;;;;;2.35;1.20;;;20.30;57.20;;;;;;2317362;58;21612;-73
2022/07/02 09:06:58;;;;;;;3.97;1.23;;;20.30;57.10;;;;;;2317155;58;21514;-73
2022/07/02 09:09:27;;;;;;;2.55;1.05;;;20.30;55.30;;;;;;2557995;54;21051;-73
2022/07/02 09:11:56;;;;;;;5.40;1.45;;;20.40;54.80;;;;;;2317091;58;22088;-74
2022/07/02 09:14:23;;;;;;;2.12;1.23;;;20.40;54.80;;;;;;2317327;58;21563;-74
2022/07/02 09:16:51;;;;;;;3.42;1.27;;;20.50;55.70;;;;;;2316391;58;21087;-74
2022/07/02 09:19:20;;;;;;;2.10;0.75;;;20.50;55.70;;;;;;2317090;58;21075;-73
2022/07/02 09:21:50;;;;;;;2.42;1.00;;;20.60;56.00;;;;;;2557920;54;21118;-73
2022/07/02 09:24:29;;;;;;;2.45;0.90;;;20.60;55.30;;;;;;2317179;58;21055;-73
2022/07/02 09:27:04;;;;;;;2.85;1.15;;;20.60;55.10;;;;;;2316839;58;21122;-73
2022/07/02 09:29:42;;;;;;;1.42;0.82;;;20.60;54.10;;;;;;2317128;58;21055;-74
2022/07/02 09:32:10;;;;;;;5.40;1.40;;;20.60;54.00;;;;;;2316773;58;21055;-74
2022/07/02 09:34:43;;;;;;;2.90;0.90;;;20.70;53.90;;;;;;2316848;58;21593;-73
2022/07/02 09:37:15;;;;;;;4.53;1.15;;;20.70;53.60;;;;;;2316146;58;21050;-74
2022/07/02 09:39:43;;;;;;;3.22;1.05;;;20.80;54.10;;;;;;2317146;58;21138;-74
2022/07/02 09:42:11;;;;;;;3.78;1.20;;;20.90;54.30;;;;;;2317450;58;21126;-74
2022/07/02 09:44:47;;;;;;;3.08;1.00;;;20.90;54.20;;;;;;2317336;58;21645;-74
2022/07/02 09:47:15;;;;;;;1.17;0.77;;;21.00;53.80;;;;;;2317480;58;21110;-73
2022/07/02 09:49:49;;;;;;;2.83;1.12;;;21.00;53.70;;;;;;2317109;58;21047;-74
2022/07/02 09:52:18;;;;;;;1.50;0.80;;;21.10;52.60;;;;;;2316786;58;21035;-74
2022/07/02 09:54:46;;;;;;;2.72;1.15;;;21.10;52.50;;;;;;2317400;58;21034;-74
2022/07/02 09:57:14;;;;;;;3.15;0.98;;;21.20;52.30;;;;;;2316068;58;21361;-74
2022/07/02 09:59:42;;;;;;;2.30;1.00;;;21.20;51.40;;;;;;2317442;58;21075;-74
2022/07/02 10:02:21;;;;;;;1.45;0.82;;;21.30;51.20;;;;;;2317411;58;21062;-73
2022/07/02 10:04:51;;;;;;;3.53;0.90;;;21.30;51.30;;;;;;2316056;58;21628;-74
2022/07/02 10:07:21;;;;;;;2.33;0.80;;;21.40;50.60;;;;;;2313852;58;21150;-74
2022/07/02 10:09:49;;;;;;;2.37;0.85;;;21.40;50.40;;;;;;2315620;58;21131;-74
2022/07/02 10:12:17;;;;;;;5.03;0.88;;;21.50;50.10;;;;;;2314612;58;21114;-74
2022/07/02 10:14:46;;;;;;;1.55;0.85;;;21.50;50.80;;;;;;2315000;58;21059;-74
2022/07/02 10:17:15;;;;;;;1.50;0.82;;;21.50;50.50;;;;;;2315707;58;21059;-74
2022/07/02 10:19:43;;;;;;;1.52;0.90;;;21.60;50.30;;;;;;2317158;58;21094;-74
2022/07/02 10:22:11;;;;;;;4.07;0.88;;;21.60;51.10;;;;;;2315382;58;21635;-73
2022/07/02 10:24:40;;;;;;;2.42;1.10;;;21.60;50.50;;;;;;2315334;58;21177;-76
2022/07/02 10:27:09;;;;;;;3.17;1.83;;;21.70;50.10;;;;;;2315359;58;21058;-74
2022/07/02 10:29:38;;;;;;;1.92;1.00;;;21.80;49.90;;;;;;2314191;58;21118;-74
2022/07/02 10:32:22;;;;;;;3.35;1.10;;;21.80;50.10;;;;;;2315109;58;21697;-76
2022/07/02 10:34:56;;;;;;;2.60;1.05;;;21.90;50.20;;;;;;2314828;58;21070;-74
2022/07/02 10:37:24;;;;;;;2.22;0.80;;;21.90;50.50;;;;;;2315517;58;21119;-74
2022/07/02 10:40:02;;;;;;;2.35;0.90;;;22.00;51.00;;;;;;2315391;58;21049;-74
2022/07/02 10:42:40;;;;;;;4.60;1.10;;;22.00;50.20;;;;;;2316264;58;21079;-74
2022/07/02 10:45:14;;;;;;;3.12;1.23;;;22.10;50.00;;;;;;2316690;58;21556;-74
2022/07/02 10:47:57;;;;;;;2.83;0.90;;;22.20;49.40;;;;;;2317345;58;21059;-74
2022/07/02 10:50:38;;;;;;;1.45;0.60;;;22.30;49.80;;;;;;2317464;58;21167;-75
2022/07/02 10:53:09;;;;;;;1.30;0.80;;;22.40;49.60;;;;;;2317655;58;21051;-73
2022/07/02 10:55:38;;;;;;;1.60;0.70;;;22.50;49.20;;;;;;2316908;58;21118;-74
2022/07/02 10:58:07;;;;;;;2.20;0.50;;;22.60;49.20;;;;;;2557931;53;21114;-73
2022/07/02 11:00:36;;;;;;;1.30;0.70;;;22.80;48.90;;;;;;2316013;58;21047;-74
2022/07/02 11:03:15;;;;;;;4.20;0.80;;;22.80;48.50;;;;;;2316945;58;21059;-73
2022/07/02 11:06:00;;;;;;;3.47;1.08;;;22.90;48.80;;;;;;2557560;54;21032;-73
2022/07/02 11:08:56;;;;;;;3.40;1.02;;;23.00;48.10;;;;;;2316557;58;21051;-74
2022/07/02 11:11:57;;;;;;;3.25;0.80;;;23.10;47.10;;;;;;2317214;58;21103;-73
2022/07/02 11:14:26;;;;;;;0.95;0.68;;;23.20;46.40;;;;;;2316704;58;21043;-72
2022/07/02 11:16:55;;;;;;;0.93;0.73;;;23.40;46.80;;;;;;2557246;54;21037;-73
2022/07/02 11:19:24;;;;;;;3.42;0.95;;;23.40;45.70;;;;;;2316140;58;21055;-74
2022/07/02 11:21:54;;;;;;;2.33;1.10;;;23.50;45.10;;;;;;2557917;54;21593;-74
2022/07/02 11:24:24;;;;;;;1.60;0.77;;;23.50;45.80;;;;;;2317329;58;21055;-73
2022/07/02 11:26:52;;;;;;;1.52;0.65;;;23.50;45.90;;;;;;2317014;58;21036;-73
2022/07/02 11:29:20;;;;;;;2.15;0.80;;;23.50;45.90;;;;;;2558221;54;21174;-73
2022/07/02 11:31:48;;;;;;;2.40;0.70;;;23.50;45.80;;;;;;2317249;58;21047;-73
2022/07/02 11:34:19;;;;;;;2.15;1.15;;;23.50;45.40;;;;;;2317127;58;21050;-74
2022/07/02 11:36:47;;;;;;;1.40;0.88;;;23.50;46.00;;;;;;2316834;58;21063;-73
2022/07/02 11:39:16;;;;;;;2.12;0.90;;;23.50;45.20;;;;;;2557878;54;21130;-73
2022/07/02 11:41:45;;;;;;;1.73;0.70;;;23.50;44.70;;;;;;2557988;54;21127;-74
2022/07/02 11:44:17;;;;;;;1.73;0.90;;;23.50;45.30;;;;;;2317186;58;21051;-73
2022/07/02 11:46:48;;;;;;;2.92;0.90;;;23.60;46.30;;;;;;2317104;58;21545;-73
2022/07/02 11:49:16;;;;;;;2.47;0.90;;;23.70;45.30;;;;;;2557758;54;21569;-73
2022/07/02 11:51:45;;;;;;;1.30;0.73;;;23.80;45.60;;;;;;2317317;58;21051;-74
2022/07/02 11:54:13;;;;;;;3.20;1.10;;;23.90;44.90;;;;;;2316982;58;21055;-74
2022/07/02 11:56:42;;;;;;;1.92;1.00;;;24.00;43.30;;;;;;2316522;58;21047;-73
2022/07/02 11:59:12;;;;;;;1.42;1.00;;;24.00;43.50;;;;;;2317599;58;21086;-73
2022/07/02 12:01:41;;;;;;;3.53;0.90;;;24.10;43.90;;;;;;2317296;58;21533;-73
2022/07/02 12:04:11;;;;;;;0.50;0.50;;;24.10;43.80;;;;;;2317356;58;21836;-73
2022/07/02 12:06:40;;;;;;;5.05;0.90;;;24.20;44.30;;;;;;2317144;58;21130;-74
2022/07/02 12:09:10;;;;;;;4.45;1.10;;;24.40;45.10;;;;;;2317489;58;21047;-73
2022/07/02 12:11:39;;;;;;;0.80;0.68;;;24.60;44.80;;;;;;2316625;58;21115;-74
2022/07/02 12:14:09;;;;;;;2.35;0.73;;;24.70;43.30;;;;;;2317516;58;21129;-74
2022/07/02 12:16:39;;;;;;;1.95;1.00;;;24.90;42.80;;;;;;2316088;58;21066;-74
2022/07/02 12:19:08;;;;;;;1.23;0.98;;;24.90;43.20;;;;;;2317408;58;21070;-73
2022/07/02 12:21:38;;;;;;;2.90;1.20;;;25.10;41.70;;;;;;2317643;58;21051;-74
2022/07/02 12:24:17;;;;;;;1.50;0.73;;;25.20;43.10;;;;;;2558181;54;21138;-73
2022/07/02 12:26:46;;;;;;;2.67;0.93;;;25.30;42.60;;;;;;2316709;58;21174;-74
2022/07/02 12:34:41;;;;;;;2.08;0.90;;;25.40;42.60;;;;;;2356104;57;22144;-73
2022/07/02 12:37:20;;;;;;;1.00;0.50;;;25.60;41.60;;;;;;2347557;57;21184;-73
2022/07/02 12:39:48;;;;;;;3.70;0.68;;;25.50;41.20;;;;;;2359573;56;22171;-73
2022/07/02 12:42:17;;;;;;;3.85;0.75;;;25.50;41.10;;;;;;2375167;56;21186;-73
2022/07/02 12:44:56;;;;;;;1.33;0.57;;;25.40;40.10;;;;;;2375081;56;21034;-73
2022/07/02 12:47:25;;;;;;;1.83;0.80;;;25.40;39.70;;;;;;2374977;56;21035;-74
2022/07/02 12:49:58;;;;;;;2.65;0.98;;;25.40;40.00;;;;;;2374644;56;21105;-72
2022/07/02 12:52:28;;;;;;;2.40;1.05;;;25.40;40.30;;;;;;2375120;56;21482;-73
2022/07/02 12:54:57;;;;;;;0.90;0.60;;;25.40;39.70;;;;;;2374840;56;21039;-73
2022/07/02 12:57:25;;;;;;;3.78;0.82;;;25.60;39.80;;;;;;2374739;56;21103;-73
2022/07/02 12:59:54;;;;;;;1.58;0.70;;;25.80;40.40;;;;;;2375072;56;21126;-74
2022/07/02 13:02:29;;;;;;;2.10;0.80;;;26.00;40.00;;;;;;2374964;56;21055;-72
2022/07/02 13:04:56;;;;;;;2.03;0.77;;;26.10;40.20;;;;;;2375042;56;21509;-73
2022/07/02 13:07:24;;;;;;;1.60;0.70;;;26.10;39.90;;;;;;2374843;56;21205;-73
2022/07/02 13:09:52;;;;;;;1.15;0.60;;;26.00;39.10;;;;;;2375037;56;21133;-73